sensor_id;sensor_type;location;lat;lon;timestamp;P1;durP1;ratioP1;P2;durP2;ratioP2
28958;SDS011;16066;0.000;0.000;2022-12-18T00:01:47;23.63;;;14.80;;
28958;SDS011;16066;0.000;0.000;2022-12-18T00:04:18;27.40;;;15.07;;
28958;SDS011;16066;0.000;0.000;2022-12-18T00:06:46;19.93;;;13.73;;
28958;SDS011;16066;0.000;0.000;2022-12-18T00:09:11;22.70;;;14.17;;
28958;SDS011;16066;0.000;0.000;2022-12-18T00:11:37;24.60;;;14.03;;
28958;SDS011;16066;0.000;0.000;2022-12-18T00:14:02;23.13;;;13.40;;
28958;SDS011;16066;0.000;0.000;2022-12-18T00:16:28;19.90;;;13.70;;
28958;SDS011;16066;0.000;0.000;2022-12-18T00:18:56;23.57;;;12.87;;
28958;SDS011;16066;0.000;0.000;2022-12-18T00:21:22;21.37;;;12.90;;
28958;SDS011;16066;0.000;0.000;2022-12-18T00:23:49;20.70;;;13.53;;
28958;SDS011;16066;0.000;0.000;2022-12-18T00:26:16;22.70;;;13.23;;
28958;SDS011;16066;0.000;0.000;2022-12-18T00:28:43;20.83;;;13.60;;
28958;SDS011;16066;0.000;0.000;2022-12-18T00:31:13;20.90;;;12.40;;
28958;SDS011;16066;0.000;0.000;2022-12-18T00:33:44;20.90;;;13.00;;
28958;SDS011;16066;0.000;0.000;2022-12-18T00:36:11;19.80;;;13.57;;
28958;SDS011;16066;0.000;0.000;2022-12-18T00:38:39;19.70;;;12.77;;
28958;SDS011;16066;0.000;0.000;2022-12-18T00:41:05;21.97;;;13.43;;
28958;SDS011;16066;0.000;0.000;2022-12-18T00:43:32;20.10;;;13.50;;
28958;SDS011;16066;0.000;0.000;2022-12-18T00:45:58;19.67;;;12.17;;
28958;SDS011;16066;0.000;0.000;2022-12-18T00:48:24;17.97;;;12.33;;
28958;SDS011;16066;0.000;0.000;2022-12-18T00:50:50;17.57;;;11.90;;
28958;SDS011;16066;0.000;0.000;2022-12-18T00:53:16;16.70;;;11.23;;
28958;SDS011;16066;0.000;0.000;2022-12-18T00:55:42;18.40;;;11.50;;
28958;SDS011;16066;0.000;0.000;2022-12-18T00:58:08;16.60;;;11.30;;
28958;SDS011;16066;0.000;0.000;2022-12-18T01:00:35;17.30;;;11.73;;
28958;SDS011;16066;0.000;0.000;2022-12-18T01:03:01;18.20;;;12.10;;
28958;SDS011;16066;0.000;0.000;2022-12-18T01:05:27;18.23;;;11.90;;
28958;SDS011;16066;0.000;0.000;2022-12-18T01:07:53;18.53;;;11.50;;
28958;SDS011;16066;0.000;0.000;2022-12-18T01:10:19;19.40;;;13.00;;
28958;SDS011;16066;0.000;0.000;2022-12-18T01:12:45;19.60;;;11.80;;
28958;SDS011;16066;0.000;0.000;2022-12-18T01:15:12;16.73;;;11.60;;
28958;SDS011;16066;0.000;0.000;2022-12-18T01:17:38;17.53;;;11.60;;
28958;SDS011;16066;0.000;0.000;2022-12-18T01:20:04;17.83;;;11.50;;
28958;SDS011;16066;0.000;0.000;2022-12-18T01:22:29;15.97;;;11.33;;
28958;SDS011;16066;0.000;0.000;2022-12-18T01:24:55;17.13;;;11.33;;
28958;SDS011;16066;0.000;0.000;2022-12-18T01:27:21;15.70;;;10.70;;
28958;SDS011;16066;0.000;0.000;2022-12-18T01:29:47;15.23;;;10.87;;
28958;SDS011;16066;0.000;0.000;2022-12-18T01:32:13;16.30;;;10.50;;
28958;SDS011;16066;0.000;0.000;2022-12-18T01:34:39;18.10;;;11.30;;
28958;SDS011;16066;0.000;0.000;2022-12-18T01:37:05;17.23;;;12.40;;
28958;SDS011;16066;0.000;0.000;2022-12-18T01:39:30;17.03;;;11.80;;
28958;SDS011;16066;0.000;0.000;2022-12-18T01:42:00;15.70;;;11.13;;
28958;SDS011;16066;0.000;0.000;2022-12-18T01:50:22;18.37;;;12.00;;
28958;SDS011;16066;0.000;0.000;2022-12-18T01:52:53;18.07;;;12.20;;
28958;SDS011;16066;0.000;0.000;2022-12-18T01:55:22;16.57;;;11.00;;
28958;SDS011;16066;0.000;0.000;2022-12-18T01:57:52;19.10;;;11.60;;
28958;SDS011;16066;0.000;0.000;2022-12-18T02:00:20;17.93;;;11.73;;
28958;SDS011;16066;0.000;0.000;2022-12-18T02:02:46;16.90;;;11.67;;
28958;SDS011;16066;0.000;0.000;2022-12-18T02:05:13;17.30;;;12.10;;
28958;SDS011;16066;0.000;0.000;2022-12-18T02:07:49;17.70;;;12.50;;
28958;SDS011;16066;0.000;0.000;2022-12-18T02:10:35;19.80;;;12.80;;
28958;SDS011;16066;0.000;0.000;2022-12-18T02:19:20;17.50;;;11.63;;
28958;SDS011;16066;0.000;0.000;2022-12-18T02:21:52;19.73;;;11.93;;
28958;SDS011;16066;0.000;0.000;2022-12-18T02:27:06;20.90;;;12.60;;
28958;SDS011;16066;0.000;0.000;2022-12-18T02:32:13;17.13;;;12.33;;
28958;SDS011;16066;0.000;0.000;2022-12-18T02:34:43;15.67;;;11.43;;
28958;SDS011;16066;0.000;0.000;2022-12-18T02:37:12;19.70;;;12.63;;
28958;SDS011;16066;0.000;0.000;2022-12-18T02:39:40;18.13;;;12.07;;
28958;SDS011;16066;0.000;0.000;2022-12-18T02:42:08;17.93;;;12.00;;
28958;SDS011;16066;0.000;0.000;2022-12-18T02:44:35;19.87;;;13.20;;
28958;SDS011;16066;0.000;0.000;2022-12-18T02:47:09;17.40;;;12.00;;
28958;SDS011;16066;0.000;0.000;2022-12-18T02:55:00;19.30;;;13.03;;
28958;SDS011;16066;0.000;0.000;2022-12-18T03:00:45;18.10;;;12.53;;
28958;SDS011;16066;0.000;0.000;2022-12-18T03:03:24;18.70;;;12.50;;
28958;SDS011;16066;0.000;0.000;2022-12-18T03:06:04;20.00;;;13.10;;
28958;SDS011;16066;0.000;0.000;2022-12-18T03:08:42;18.50;;;12.57;;
28958;SDS011;16066;0.000;0.000;2022-12-18T03:11:12;15.90;;;12.00;;
28958;SDS011;16066;0.000;0.000;2022-12-18T03:13:43;17.63;;;12.53;;
28958;SDS011;16066;0.000;0.000;2022-12-18T03:16:18;17.83;;;11.50;;
28958;SDS011;16066;0.000;0.000;2022-12-18T03:18:59;18.07;;;12.30;;
28958;SDS011;16066;0.000;0.000;2022-12-18T03:21:36;16.47;;;11.70;;
28958;SDS011;16066;0.000;0.000;2022-12-18T03:24:08;17.70;;;12.60;;
28958;SDS011;16066;0.000;0.000;2022-12-18T03:26:36;19.93;;;13.23;;
28958;SDS011;16066;0.000;0.000;2022-12-18T03:29:09;17.33;;;13.00;;
28958;SDS011;16066;0.000;0.000;2022-12-18T03:31:39;16.17;;;11.97;;
28958;SDS011;16066;0.000;0.000;2022-12-18T03:34:15;16.90;;;12.03;;
28958;SDS011;16066;0.000;0.000;2022-12-18T03:36:44;18.50;;;12.77;;
28958;SDS011;16066;0.000;0.000;2022-12-18T03:39:10;19.17;;;12.87;;
28958;SDS011;16066;0.000;0.000;2022-12-18T03:41:47;20.07;;;13.27;;
28958;SDS011;16066;0.000;0.000;2022-12-18T03:44:23;18.77;;;13.00;;
28958;SDS011;16066;0.000;0.000;2022-12-18T03:46:57;15.67;;;11.40;;
28958;SDS011;16066;0.000;0.000;2022-12-18T03:49:40;18.77;;;12.50;;
28958;SDS011;16066;0.000;0.000;2022-12-18T03:54:49;17.27;;;12.47;;
28958;SDS011;16066;0.000;0.000;2022-12-18T03:57:17;17.87;;;12.77;;
28958;SDS011;16066;0.000;0.000;2022-12-18T03:59:45;17.47;;;12.67;;
28958;SDS011;16066;0.000;0.000;2022-12-18T04:02:13;17.97;;;12.53;;
28958;SDS011;16066;0.000;0.000;2022-12-18T04:04:42;16.43;;;11.90;;
28958;SDS011;16066;0.000;0.000;2022-12-18T04:07:09;16.70;;;11.77;;
28958;SDS011;16066;0.000;0.000;2022-12-18T04:09:36;19.80;;;13.00;;
28958;SDS011;16066;0.000;0.000;2022-12-18T04:12:04;19.43;;;12.77;;
28958;SDS011;16066;0.000;0.000;2022-12-18T04:14:30;21.00;;;13.20;;
28958;SDS011;16066;0.000;0.000;2022-12-18T04:17:00;15.10;;;10.40;;
28958;SDS011;16066;0.000;0.000;2022-12-18T04:19:26;17.27;;;12.60;;
28958;SDS011;16066;0.000;0.000;2022-12-18T04:21:51;17.90;;;13.03;;
28958;SDS011;16066;0.000;0.000;2022-12-18T04:24:17;16.60;;;11.33;;
28958;SDS011;16066;0.000;0.000;2022-12-18T04:26:42;19.20;;;11.77;;
28958;SDS011;16066;0.000;0.000;2022-12-18T04:29:08;17.13;;;12.10;;
28958;SDS011;16066;0.000;0.000;2022-12-18T04:31:33;16.13;;;11.83;;
28958;SDS011;16066;0.000;0.000;2022-12-18T04:33:59;20.17;;;13.40;;
28958;SDS011;16066;0.000;0.000;2022-12-18T04:36:24;18.10;;;13.37;;
28958;SDS011;16066;0.000;0.000;2022-12-18T04:38:50;18.80;;;12.80;;
28958;SDS011;16066;0.000;0.000;2022-12-18T04:41:15;17.23;;;12.97;;
28958;SDS011;16066;0.000;0.000;2022-12-18T04:43:41;16.63;;;11.80;;
28958;SDS011;16066;0.000;0.000;2022-12-18T04:46:07;16.17;;;12.10;;
28958;SDS011;16066;0.000;0.000;2022-12-18T04:48:33;16.27;;;12.17;;
28958;SDS011;16066;0.000;0.000;2022-12-18T04:51:01;15.80;;;11.30;;
28958;SDS011;16066;0.000;0.000;2022-12-18T04:53:27;16.80;;;11.90;;
28958;SDS011;16066;0.000;0.000;2022-12-18T04:56:05;16.03;;;11.70;;
28958;SDS011;16066;0.000;0.000;2022-12-18T04:58:32;17.27;;;11.77;;
28958;SDS011;16066;0.000;0.000;2022-12-18T05:00:58;17.47;;;11.67;;
28958;SDS011;16066;0.000;0.000;2022-12-18T05:03:23;16.50;;;11.50;;
28958;SDS011;16066;0.000;0.000;2022-12-18T05:05:49;17.70;;;11.70;;
28958;SDS011;16066;0.000;0.000;2022-12-18T05:08:16;15.87;;;11.33;;
28958;SDS011;16066;0.000;0.000;2022-12-18T05:10:41;15.47;;;11.47;;
28958;SDS011;16066;0.000;0.000;2022-12-18T05:13:07;17.30;;;11.60;;
28958;SDS011;16066;0.000;0.000;2022-12-18T05:15:33;16.57;;;11.17;;
28958;SDS011;16066;0.000;0.000;2022-12-18T05:17:58;17.27;;;11.33;;
28958;SDS011;16066;0.000;0.000;2022-12-18T05:20:24;14.93;;;11.20;;
28958;SDS011;16066;0.000;0.000;2022-12-18T05:22:50;15.93;;;11.13;;
28958;SDS011;16066;0.000;0.000;2022-12-18T05:25:16;14.80;;;10.80;;
28958;SDS011;16066;0.000;0.000;2022-12-18T05:27:42;12.23;;;9.30;;
28958;SDS011;16066;0.000;0.000;2022-12-18T05:30:08;14.87;;;9.63;;
28958;SDS011;16066;0.000;0.000;2022-12-18T05:32:34;17.67;;;11.00;;
28958;SDS011;16066;0.000;0.000;2022-12-18T05:35:00;14.57;;;11.20;;
28958;SDS011;16066;0.000;0.000;2022-12-18T05:37:25;15.20;;;10.90;;
28958;SDS011;16066;0.000;0.000;2022-12-18T05:39:51;14.20;;;9.63;;
28958;SDS011;16066;0.000;0.000;2022-12-18T05:42:17;15.07;;;10.13;;
28958;SDS011;16066;0.000;0.000;2022-12-18T05:44:43;15.73;;;10.80;;
28958;SDS011;16066;0.000;0.000;2022-12-18T05:47:08;14.63;;;9.80;;
28958;SDS011;16066;0.000;0.000;2022-12-18T05:49:34;13.87;;;10.33;;
28958;SDS011;16066;0.000;0.000;2022-12-18T05:51:59;14.03;;;9.53;;
28958;SDS011;16066;0.000;0.000;2022-12-18T05:54:26;14.97;;;10.20;;
28958;SDS011;16066;0.000;0.000;2022-12-18T05:56:52;14.97;;;10.33;;
28958;SDS011;16066;0.000;0.000;2022-12-18T05:59:18;15.43;;;10.83;;
28958;SDS011;16066;0.000;0.000;2022-12-18T06:01:44;14.80;;;9.93;;
28958;SDS011;16066;0.000;0.000;2022-12-18T06:04:09;16.23;;;11.30;;
28958;SDS011;16066;0.000;0.000;2022-12-18T06:06:35;15.53;;;10.40;;
28958;SDS011;16066;0.000;0.000;2022-12-18T06:09:01;17.27;;;11.20;;
28958;SDS011;16066;0.000;0.000;2022-12-18T06:11:33;15.67;;;10.83;;
28958;SDS011;16066;0.000;0.000;2022-12-18T06:13:59;15.50;;;11.30;;
28958;SDS011;16066;0.000;0.000;2022-12-18T06:16:25;14.63;;;10.03;;
28958;SDS011;16066;0.000;0.000;2022-12-18T06:18:51;12.87;;;9.77;;
28958;SDS011;16066;0.000;0.000;2022-12-18T06:21:17;11.97;;;9.23;;
28958;SDS011;16066;0.000;0.000;2022-12-18T06:23:42;15.00;;;9.87;;
28958;SDS011;16066;0.000;0.000;2022-12-18T06:26:09;14.10;;;10.80;;
28958;SDS011;16066;0.000;0.000;2022-12-18T06:28:36;16.57;;;10.77;;
28958;SDS011;16066;0.000;0.000;2022-12-18T06:31:02;15.97;;;10.43;;
28958;SDS011;16066;0.000;0.000;2022-12-18T06:33:29;17.40;;;11.17;;
28958;SDS011;16066;0.000;0.000;2022-12-18T06:35:59;15.50;;;10.50;;
28958;SDS011;16066;0.000;0.000;2022-12-18T06:38:33;16.67;;;10.37;;
28958;SDS011;16066;0.000;0.000;2022-12-18T06:41:00;15.67;;;10.63;;
28958;SDS011;16066;0.000;0.000;2022-12-18T06:43:26;16.63;;;11.13;;
28958;SDS011;16066;0.000;0.000;2022-12-18T06:45:57;15.80;;;10.63;;
28958;SDS011;16066;0.000;0.000;2022-12-18T06:48:24;15.37;;;10.73;;
28958;SDS011;16066;0.000;0.000;2022-12-18T06:50:49;16.00;;;11.00;;
28958;SDS011;16066;0.000;0.000;2022-12-18T06:53:15;14.10;;;9.70;;
28958;SDS011;16066;0.000;0.000;2022-12-18T06:55:40;13.83;;;10.27;;
28958;SDS011;16066;0.000;0.000;2022-12-18T06:58:06;14.80;;;10.63;;
28958;SDS011;16066;0.000;0.000;2022-12-18T07:00:31;14.30;;;10.30;;
28958;SDS011;16066;0.000;0.000;2022-12-18T07:02:57;12.73;;;9.93;;
28958;SDS011;16066;0.000;0.000;2022-12-18T07:05:22;13.50;;;9.00;;
28958;SDS011;16066;0.000;0.000;2022-12-18T07:07:48;13.70;;;9.63;;
28958;SDS011;16066;0.000;0.000;2022-12-18T07:10:13;12.50;;;9.37;;
28958;SDS011;16066;0.000;0.000;2022-12-18T07:12:39;13.00;;;9.47;;
28958;SDS011;16066;0.000;0.000;2022-12-18T07:15:04;13.07;;;9.60;;
28958;SDS011;16066;0.000;0.000;2022-12-18T07:17:30;14.30;;;9.90;;
28958;SDS011;16066;0.000;0.000;2022-12-18T07:19:56;14.30;;;9.80;;
28958;SDS011;16066;0.000;0.000;2022-12-18T07:22:21;12.10;;;9.70;;
28958;SDS011;16066;0.000;0.000;2022-12-18T07:24:47;16.40;;;9.97;;
28958;SDS011;16066;0.000;0.000;2022-12-18T07:27:13;13.07;;;9.67;;
28958;SDS011;16066;0.000;0.000;2022-12-18T07:29:39;13.80;;;9.40;;
28958;SDS011;16066;0.000;0.000;2022-12-18T07:32:04;13.63;;;10.07;;
28958;SDS011;16066;0.000;0.000;2022-12-18T07:34:30;14.00;;;9.83;;
28958;SDS011;16066;0.000;0.000;2022-12-18T07:36:56;17.40;;;9.50;;
28958;SDS011;16066;0.000;0.000;2022-12-18T07:39:21;13.03;;;9.47;;
28958;SDS011;16066;0.000;0.000;2022-12-18T07:41:47;12.93;;;8.87;;
28958;SDS011;16066;0.000;0.000;2022-12-18T07:44:32;11.80;;;8.63;;
28958;SDS011;16066;0.000;0.000;2022-12-18T07:46:58;11.20;;;8.67;;
28958;SDS011;16066;0.000;0.000;2022-12-18T07:49:23;14.90;;;9.20;;
28958;SDS011;16066;0.000;0.000;2022-12-18T07:51:49;11.17;;;8.17;;
28958;SDS011;16066;0.000;0.000;2022-12-18T07:54:14;13.07;;;7.47;;
28958;SDS011;16066;0.000;0.000;2022-12-18T07:56:40;10.27;;;7.47;;
28958;SDS011;16066;0.000;0.000;2022-12-18T07:59:05;10.67;;;7.70;;
28958;SDS011;16066;0.000;0.000;2022-12-18T08:01:31;9.33;;;7.40;;
28958;SDS011;16066;0.000;0.000;2022-12-18T08:03:57;9.90;;;7.30;;
28958;SDS011;16066;0.000;0.000;2022-12-18T08:06:23;11.20;;;7.37;;
28958;SDS011;16066;0.000;0.000;2022-12-18T08:08:50;13.93;;;8.20;;
28958;SDS011;16066;0.000;0.000;2022-12-18T08:11:16;8.97;;;7.67;;
28958;SDS011;16066;0.000;0.000;2022-12-18T08:13:42;11.50;;;8.23;;
28958;SDS011;16066;0.000;0.000;2022-12-18T08:16:07;10.20;;;7.80;;
28958;SDS011;16066;0.000;0.000;2022-12-18T08:18:34;10.03;;;7.37;;
28958;SDS011;16066;0.000;0.000;2022-12-18T08:21:07;11.30;;;7.80;;
28958;SDS011;16066;0.000;0.000;2022-12-18T08:23:37;9.93;;;7.33;;
28958;SDS011;16066;0.000;0.000;2022-12-18T08:26:02;9.60;;;7.37;;
28958;SDS011;16066;0.000;0.000;2022-12-18T08:28:28;12.00;;;7.90;;
28958;SDS011;16066;0.000;0.000;2022-12-18T08:30:53;18.03;;;8.40;;
28958;SDS011;16066;0.000;0.000;2022-12-18T08:33:19;11.97;;;9.33;;
28958;SDS011;16066;0.000;0.000;2022-12-18T08:35:44;13.30;;;9.30;;
28958;SDS011;16066;0.000;0.000;2022-12-18T08:38:10;17.23;;;10.30;;
28958;SDS011;16066;0.000;0.000;2022-12-18T08:40:35;16.17;;;11.00;;
28958;SDS011;16066;0.000;0.000;2022-12-18T08:43:01;14.47;;;10.60;;
28958;SDS011;16066;0.000;0.000;2022-12-18T08:45:45;14.97;;;11.00;;
28958;SDS011;16066;0.000;0.000;2022-12-18T08:48:10;13.70;;;10.60;;
28958;SDS011;16066;0.000;0.000;2022-12-18T08:50:36;27.63;;;10.57;;
28958;SDS011;16066;0.000;0.000;2022-12-18T08:53:01;20.67;;;10.83;;
28958;SDS011;16066;0.000;0.000;2022-12-18T08:55:27;13.17;;;9.37;;
28958;SDS011;16066;0.000;0.000;2022-12-18T08:57:52;12.87;;;9.60;;
28958;SDS011;16066;0.000;0.000;2022-12-18T09:00:18;13.13;;;9.63;;
28958;SDS011;16066;0.000;0.000;2022-12-18T09:02:44;13.33;;;9.53;;
28958;SDS011;16066;0.000;0.000;2022-12-18T09:05:09;14.43;;;9.90;;
28958;SDS011;16066;0.000;0.000;2022-12-18T09:07:35;15.00;;;9.70;;
28958;SDS011;16066;0.000;0.000;2022-12-18T09:10:00;13.63;;;9.20;;
28958;SDS011;16066;0.000;0.000;2022-12-18T09:12:26;13.90;;;10.00;;
28958;SDS011;16066;0.000;0.000;2022-12-18T09:14:51;12.27;;;9.10;;
28958;SDS011;16066;0.000;0.000;2022-12-18T09:17:17;11.37;;;7.70;;
28958;SDS011;16066;0.000;0.000;2022-12-18T09:19:42;13.50;;;7.80;;
28958;SDS011;16066;0.000;0.000;2022-12-18T09:22:08;12.33;;;8.80;;
28958;SDS011;16066;0.000;0.000;2022-12-18T09:24:34;13.97;;;7.80;;
28958;SDS011;16066;0.000;0.000;2022-12-18T09:27:00;14.87;;;8.80;;
28958;SDS011;16066;0.000;0.000;2022-12-18T09:29:25;11.13;;;7.80;;
28958;SDS011;16066;0.000;0.000;2022-12-18T09:31:51;11.77;;;8.37;;
28958;SDS011;16066;0.000;0.000;2022-12-18T09:34:16;12.33;;;7.77;;
28958;SDS011;16066;0.000;0.000;2022-12-18T09:36:42;11.67;;;7.90;;
28958;SDS011;16066;0.000;0.000;2022-12-18T09:39:08;9.90;;;8.00;;
28958;SDS011;16066;0.000;0.000;2022-12-18T09:41:37;11.00;;;7.70;;
28958;SDS011;16066;0.000;0.000;2022-12-18T09:44:39;11.60;;;7.50;;
28958;SDS011;16066;0.000;0.000;2022-12-18T09:49:43;8.90;;;7.30;;
28958;SDS011;16066;0.000;0.000;2022-12-18T09:52:21;14.67;;;7.80;;
28958;SDS011;16066;0.000;0.000;2022-12-18T09:54:56;10.70;;;7.60;;
28958;SDS011;16066;0.000;0.000;2022-12-18T09:57:28;10.03;;;7.70;;
28958;SDS011;16066;0.000;0.000;2022-12-18T10:00:11;10.87;;;8.27;;
28958;SDS011;16066;0.000;0.000;2022-12-18T10:02:43;10.97;;;7.50;;
28958;SDS011;16066;0.000;0.000;2022-12-18T10:05:13;11.30;;;8.43;;
28958;SDS011;16066;0.000;0.000;2022-12-18T10:10:48;13.73;;;8.70;;
28958;SDS011;16066;0.000;0.000;2022-12-18T10:13:23;13.10;;;8.10;;
28958;SDS011;16066;0.000;0.000;2022-12-18T10:16:00;9.47;;;7.80;;
28958;SDS011;16066;0.000;0.000;2022-12-18T10:21:47;9.70;;;7.27;;
28958;SDS011;16066;0.000;0.000;2022-12-18T10:27:09;10.90;;;7.97;;
28958;SDS011;16066;0.000;0.000;2022-12-18T10:29:36;11.87;;;7.33;;
28958;SDS011;16066;0.000;0.000;2022-12-18T10:32:02;12.67;;;7.63;;
28958;SDS011;16066;0.000;0.000;2022-12-18T10:34:28;11.73;;;7.37;;
28958;SDS011;16066;0.000;0.000;2022-12-18T10:36:54;10.20;;;7.83;;
28958;SDS011;16066;0.000;0.000;2022-12-18T10:39:23;10.83;;;7.07;;
28958;SDS011;16066;0.000;0.000;2022-12-18T10:41:51;13.30;;;7.20;;
28958;SDS011;16066;0.000;0.000;2022-12-18T10:44:18;14.00;;;7.63;;
28958;SDS011;16066;0.000;0.000;2022-12-18T10:46:46;29.20;;;8.17;;
28958;SDS011;16066;0.000;0.000;2022-12-18T10:49:27;10.10;;;7.67;;
28958;SDS011;16066;0.000;0.000;2022-12-18T10:54:54;10.60;;;7.10;;
28958;SDS011;16066;0.000;0.000;2022-12-18T11:02:54;8.80;;;6.80;;
28958;SDS011;16066;0.000;0.000;2022-12-18T11:07:55;9.27;;;6.80;;
28958;SDS011;16066;0.000;0.000;2022-12-18T11:10:26;9.00;;;6.47;;
28958;SDS011;16066;0.000;0.000;2022-12-18T11:12:56;9.17;;;6.10;;
28958;SDS011;16066;0.000;0.000;2022-12-18T11:15:43;11.03;;;6.90;;
28958;SDS011;16066;0.000;0.000;2022-12-18T11:18:16;9.20;;;6.37;;
28958;SDS011;16066;0.000;0.000;2022-12-18T11:20:49;8.70;;;5.87;;
28958;SDS011;16066;0.000;0.000;2022-12-18T11:23:20;8.23;;;6.03;;
28958;SDS011;16066;0.000;0.000;2022-12-18T11:25:58;9.03;;;6.33;;
28958;SDS011;16066;0.000;0.000;2022-12-18T11:28:27;10.93;;;7.20;;
28958;SDS011;16066;0.000;0.000;2022-12-18T11:31:35;8.30;;;6.13;;
28958;SDS011;16066;0.000;0.000;2022-12-18T11:36:21;8.87;;;6.33;;
28958;SDS011;16066;0.000;0.000;2022-12-18T11:38:48;9.20;;;6.07;;
28958;SDS011;16066;0.000;0.000;2022-12-18T11:41:27;9.27;;;6.00;;
28958;SDS011;16066;0.000;0.000;2022-12-18T11:44:24;7.73;;;6.07;;
28958;SDS011;16066;0.000;0.000;2022-12-18T11:46:55;8.50;;;6.10;;
28958;SDS011;16066;0.000;0.000;2022-12-18T11:49:34;7.77;;;5.87;;
28958;SDS011;16066;0.000;0.000;2022-12-18T11:54:50;9.60;;;6.50;;
28958;SDS011;16066;0.000;0.000;2022-12-18T12:02:54;8.80;;;6.30;;
28958;SDS011;16066;0.000;0.000;2022-12-18T12:05:43;7.63;;;6.43;;
28958;SDS011;16066;0.000;0.000;2022-12-18T12:11:12;7.60;;;5.80;;
28958;SDS011;16066;0.000;0.000;2022-12-18T12:16:51;6.50;;;5.57;;
28958;SDS011;16066;0.000;0.000;2022-12-18T12:24:49;7.87;;;5.83;;
28958;SDS011;16066;0.000;0.000;2022-12-18T12:27:45;8.33;;;6.33;;
28958;SDS011;16066;0.000;0.000;2022-12-18T12:30:53;7.97;;;5.77;;
28958;SDS011;16066;0.000;0.000;2022-12-18T12:39:01;8.20;;;6.30;;
28958;SDS011;16066;0.000;0.000;2022-12-18T12:41:33;8.63;;;6.07;;
28958;SDS011;16066;0.000;0.000;2022-12-18T12:44:20;8.20;;;6.13;;
28958;SDS011;16066;0.000;0.000;2022-12-18T12:46:50;7.53;;;5.83;;
28958;SDS011;16066;0.000;0.000;2022-12-18T12:49:20;8.23;;;6.33;;
28958;SDS011;16066;0.000;0.000;2022-12-18T12:51:53;9.97;;;6.37;;
28958;SDS011;16066;0.000;0.000;2022-12-18T12:54:29;10.10;;;6.60;;
28958;SDS011;16066;0.000;0.000;2022-12-18T12:56:59;8.63;;;6.63;;
28958;SDS011;16066;0.000;0.000;2022-12-18T12:59:40;7.43;;;6.00;;
28958;SDS011;16066;0.000;0.000;2022-12-18T13:03:20;9.00;;;6.70;;
28958;SDS011;16066;0.000;0.000;2022-12-18T13:08:07;8.43;;;6.83;;
28958;SDS011;16066;0.000;0.000;2022-12-18T13:10:35;11.77;;;7.10;;
28958;SDS011;16066;0.000;0.000;2022-12-18T13:13:10;12.30;;;6.87;;
28958;SDS011;16066;0.000;0.000;2022-12-18T13:18:27;8.57;;;6.10;;
28958;SDS011;16066;0.000;0.000;2022-12-18T13:25:48;9.33;;;6.90;;
28958;SDS011;16066;0.000;0.000;2022-12-18T13:30:59;8.10;;;6.67;;
28958;SDS011;16066;0.000;0.000;2022-12-18T13:36:46;10.30;;;7.23;;
28958;SDS011;16066;0.000;0.000;2022-12-18T13:38:47;8.90;;;7.27;;
28958;SDS011;16066;0.000;0.000;2022-12-18T13:41:32;8.53;;;6.73;;
28958;SDS011;16066;0.000;0.000;2022-12-18T13:44:11;9.07;;;7.20;;
28958;SDS011;16066;0.000;0.000;2022-12-18T13:46:58;11.10;;;8.10;;
28958;SDS011;16066;0.000;0.000;2022-12-18T13:49:38;10.10;;;7.57;;
28958;SDS011;16066;0.000;0.000;2022-12-18T13:54:53;11.47;;;8.03;;
28958;SDS011;16066;0.000;0.000;2022-12-18T13:57:29;9.00;;;7.13;;
28958;SDS011;16066;0.000;0.000;2022-12-18T14:02:47;9.53;;;7.43;;
28958;SDS011;16066;0.000;0.000;2022-12-18T14:07:48;10.40;;;7.67;;
28958;SDS011;16066;0.000;0.000;2022-12-18T14:10:15;11.73;;;8.43;;
28958;SDS011;16066;0.000;0.000;2022-12-18T14:12:44;12.80;;;9.13;;
28958;SDS011;16066;0.000;0.000;2022-12-18T14:18:24;9.87;;;7.50;;
28958;SDS011;16066;0.000;0.000;2022-12-18T14:21:00;10.80;;;8.10;;
28958;SDS011;16066;0.000;0.000;2022-12-18T14:23:35;13.60;;;8.70;;
28958;SDS011;16066;0.000;0.000;2022-12-18T14:26:21;12.43;;;9.57;;
28958;SDS011;16066;0.000;0.000;2022-12-18T14:28:54;10.23;;;7.80;;
28958;SDS011;16066;0.000;0.000;2022-12-18T14:31:26;11.80;;;8.30;;
28958;SDS011;16066;0.000;0.000;2022-12-18T14:33:53;11.70;;;8.80;;
28958;SDS011;16066;0.000;0.000;2022-12-18T14:36:23;10.70;;;7.97;;
28958;SDS011;16066;0.000;0.000;2022-12-18T14:38:51;11.23;;;9.00;;
28958;SDS011;16066;0.000;0.000;2022-12-18T14:41:21;13.93;;;10.43;;
28958;SDS011;16066;0.000;0.000;2022-12-18T14:43:48;11.40;;;8.63;;
28958;SDS011;16066;0.000;0.000;2022-12-18T14:51:52;14.23;;;10.47;;
28958;SDS011;16066;0.000;0.000;2022-12-18T14:54:38;13.53;;;10.43;;
28958;SDS011;16066;0.000;0.000;2022-12-18T14:57:05;11.73;;;8.77;;
28958;SDS011;16066;0.000;0.000;2022-12-18T14:59:49;12.00;;;9.60;;
28958;SDS011;16066;0.000;0.000;2022-12-18T15:02:23;14.13;;;10.17;;
28958;SDS011;16066;0.000;0.000;2022-12-18T15:05:14;12.77;;;9.90;;
28958;SDS011;16066;0.000;0.000;2022-12-18T15:07:43;13.00;;;9.60;;
28958;SDS011;16066;0.000;0.000;2022-12-18T15:10:20;12.87;;;9.40;;
28958;SDS011;16066;0.000;0.000;2022-12-18T15:12:48;14.53;;;10.50;;
28958;SDS011;16066;0.000;0.000;2022-12-18T15:18:01;13.97;;;10.27;;
28958;SDS011;16066;0.000;0.000;2022-12-18T15:23:46;13.90;;;10.53;;
28958;SDS011;16066;0.000;0.000;2022-12-18T15:26:14;16.80;;;11.37;;
28958;SDS011;16066;0.000;0.000;2022-12-18T15:28:55;12.63;;;10.03;;
28958;SDS011;16066;0.000;0.000;2022-12-18T15:31:32;13.67;;;10.67;;
28958;SDS011;16066;0.000;0.000;2022-12-18T15:34:04;13.47;;;10.63;;
28958;SDS011;16066;0.000;0.000;2022-12-18T15:36:38;15.43;;;12.07;;
28958;SDS011;16066;0.000;0.000;2022-12-18T15:39:04;15.73;;;11.57;;
28958;SDS011;16066;0.000;0.000;2022-12-18T15:41:31;16.37;;;12.13;;
28958;SDS011;16066;0.000;0.000;2022-12-18T15:43:58;16.80;;;12.27;;
28958;SDS011;16066;0.000;0.000;2022-12-18T15:46:24;15.53;;;11.30;;
28958;SDS011;16066;0.000;0.000;2022-12-18T15:48:55;16.27;;;12.23;;
28958;SDS011;16066;0.000;0.000;2022-12-18T15:51:23;16.30;;;12.27;;
28958;SDS011;16066;0.000;0.000;2022-12-18T15:53:53;19.87;;;12.90;;
28958;SDS011;16066;0.000;0.000;2022-12-18T15:56:20;16.73;;;12.13;;
28958;SDS011;16066;0.000;0.000;2022-12-18T15:59:07;17.30;;;12.50;;
28958;SDS011;16066;0.000;0.000;2022-12-18T16:01:37;18.70;;;13.27;;
28958;SDS011;16066;0.000;0.000;2022-12-18T16:04:03;17.20;;;12.87;;
28958;SDS011;16066;0.000;0.000;2022-12-18T16:06:29;17.60;;;13.57;;
28958;SDS011;16066;0.000;0.000;2022-12-18T16:08:54;17.80;;;13.33;;
28958;SDS011;16066;0.000;0.000;2022-12-18T16:11:24;16.60;;;13.00;;
28958;SDS011;16066;0.000;0.000;2022-12-18T16:16:30;17.97;;;12.73;;
28958;SDS011;16066;0.000;0.000;2022-12-18T16:18:56;17.87;;;13.27;;
28958;SDS011;16066;0.000;0.000;2022-12-18T16:21:21;23.10;;;15.00;;
28958;SDS011;16066;0.000;0.000;2022-12-18T16:23:47;16.07;;;13.10;;
28958;SDS011;16066;0.000;0.000;2022-12-18T16:26:12;19.70;;;13.67;;
28958;SDS011;16066;0.000;0.000;2022-12-18T16:28:38;18.07;;;13.50;;
28958;SDS011;16066;0.000;0.000;2022-12-18T16:31:04;17.37;;;13.20;;
28958;SDS011;16066;0.000;0.000;2022-12-18T16:33:29;19.10;;;13.80;;
28958;SDS011;16066;0.000;0.000;2022-12-18T16:35:55;18.40;;;13.13;;
28958;SDS011;16066;0.000;0.000;2022-12-18T16:38:20;17.90;;;12.53;;
28958;SDS011;16066;0.000;0.000;2022-12-18T16:40:46;17.17;;;12.90;;
28958;SDS011;16066;0.000;0.000;2022-12-18T16:43:34;20.30;;;11.77;;
28958;SDS011;16066;0.000;0.000;2022-12-18T16:46:00;16.90;;;12.57;;
28958;SDS011;16066;0.000;0.000;2022-12-18T16:48:25;16.47;;;13.00;;
28958;SDS011;16066;0.000;0.000;2022-12-18T16:50:53;16.87;;;12.70;;
28958;SDS011;16066;0.000;0.000;2022-12-18T16:53:28;19.40;;;13.77;;
28958;SDS011;16066;0.000;0.000;2022-12-18T16:55:54;15.43;;;11.93;;
28958;SDS011;16066;0.000;0.000;2022-12-18T16:58:20;17.90;;;13.20;;